createdAt,value
2022-09-21T00:01:44.993Z,3.45
2022-09-21T00:03:47.094Z,2.08
2022-09-21T00:05:48.752Z,2.88
2022-09-21T00:07:50.725Z,2.40
2022-09-21T00:09:52.372Z,1.75
2022-09-21T00:11:58.170Z,2.90
2022-09-21T00:14:04.616Z,2.97
2022-09-21T00:16:08.361Z,1.90
2022-09-21T00:18:10.398Z,2.22
2022-09-21T00:20:12.117Z,2.35
2022-09-21T00:22:14.041Z,2.05
2022-09-21T00:24:15.759Z,2.70
2022-09-21T00:26:19.820Z,2.15
2022-09-21T00:28:21.423Z,2.50
2022-09-21T00:30:23.086Z,2.72
2022-09-21T00:32:25.205Z,2.90
2022-09-21T00:34:27.488Z,2.55
2022-09-21T00:36:29.493Z,1.60
2022-09-21T00:38:31.525Z,2.30
2022-09-21T00:40:33.285Z,2.05
2022-09-21T00:42:35.549Z,2.45
2022-09-21T00:44:37.278Z,2.60
2022-09-21T00:46:41.868Z,2.40
2022-09-21T00:48:43.679Z,2.20
2022-09-21T00:50:50.666Z,2.42
2022-09-21T00:52:55.513Z,2.35
2022-09-21T00:55:10.647Z,2.33
2022-09-21T00:57:12.700Z,3.00
2022-09-21T00:59:15.787Z,2.63
2022-09-21T01:01:18.798Z,1.73
2022-09-21T01:03:20.614Z,2.22
2022-09-21T01:05:22.532Z,2.40
2022-09-21T01:07:27.752Z,2.22
2022-09-21T01:09:29.477Z,2.88
2022-09-21T01:11:34.477Z,2.22
2022-09-21T01:14:01.770Z,2.33
2022-09-21T01:16:07.506Z,3.03
2022-09-21T01:18:16.726Z,2.58
2022-09-21T01:20:41.772Z,2.53
2022-09-21T01:22:43.334Z,1.98
2022-09-21T01:24:47.736Z,2.33
2022-09-21T01:26:59.476Z,2.28
2022-09-21T01:29:06.705Z,2.25
2022-09-21T01:31:14.207Z,2.10
2022-09-21T01:33:23.481Z,2.67
2022-09-21T01:35:32.680Z,2.78
2022-09-21T01:37:38.237Z,2.35
2022-09-21T01:39:41.489Z,2.55
2022-09-21T01:41:45.227Z,2.88
2022-09-21T01:43:51.087Z,2.17
2022-09-21T01:45:55.211Z,2.22
2022-09-21T01:48:00.257Z,2.05
2022-09-21T01:50:04.780Z,2.28
2022-09-21T01:52:20.308Z,2.63
2022-09-21T01:54:24.701Z,2.35
2022-09-21T01:56:36.653Z,1.98
2022-09-21T01:58:57.730Z,2.45
2022-09-21T02:00:59.739Z,1.95
2022-09-21T02:03:11.060Z,2.05
2022-09-21T02:05:13.586Z,2.08
2022-09-21T02:07:17.223Z,2.10
2022-09-21T02:09:18.950Z,2.38
2022-09-21T02:11:21.754Z,2.08
2022-09-21T02:13:25.478Z,1.92
2022-09-21T02:15:47.692Z,2.22
2022-09-21T02:18:08.234Z,2.08
2022-09-21T02:20:17.635Z,2.50
2022-09-21T02:22:36.298Z,2.53
2022-09-21T02:24:44.877Z,3.45
2022-09-21T02:26:51.049Z,1.73
2022-09-21T02:28:53.111Z,2.65
2022-09-21T02:31:03.231Z,2.45
2022-09-21T02:33:27.330Z,2.42
2022-09-21T02:35:31.951Z,2.67
2022-09-21T02:37:33.576Z,2.22
2022-09-21T02:39:39.438Z,2.47
2022-09-21T02:41:47.941Z,2.28
2022-09-21T02:44:23.999Z,2.30
2022-09-21T02:46:34.441Z,1.98
2022-09-21T02:48:43.570Z,1.77
2022-09-21T02:50:46.626Z,2.10
2022-09-21T02:52:48.468Z,3.00
2022-09-21T02:54:52.294Z,1.92
2022-09-21T02:56:54.639Z,1.77
2022-09-21T02:58:59.428Z,2.30
2022-09-21T03:01:01.672Z,2.75
2022-09-21T03:03:17.337Z,2.05
2022-09-21T03:05:18.996Z,2.30
2022-09-21T03:07:20.665Z,2.47
2022-09-21T03:09:24.382Z,2.50
2022-09-21T03:11:29.253Z,2.38
2022-09-21T03:13:31.209Z,2.30
2022-09-21T03:15:32.913Z,2.17
2022-09-21T03:17:34.924Z,2.97
2022-09-21T03:19:36.566Z,2.45
2022-09-21T03:21:43.762Z,2.15
2022-09-21T03:23:46.405Z,2.28
2022-09-21T03:25:48.193Z,2.40
2022-09-21T03:27:53.790Z,2.60
2022-09-21T03:29:58.835Z,2.20
2022-09-21T03:32:04.066Z,2.42
2022-09-21T03:34:05.723Z,2.22
2022-09-21T03:36:08.171Z,2.72
2022-09-21T03:38:10.121Z,2.58
2022-09-21T03:40:12.795Z,3.25
2022-09-21T03:42:14.481Z,2.75
2022-09-21T03:44:17.719Z,2.35
2022-09-21T03:46:23.188Z,2.25
2022-09-21T03:48:24.931Z,2.08
2022-09-21T03:50:28.650Z,2.28
2022-09-21T03:52:30.372Z,1.98
2022-09-21T03:54:32.010Z,2.42
2022-09-21T03:56:33.741Z,2.28
2022-09-21T03:58:35.395Z,2.47
2022-09-21T04:00:38.303Z,2.53
2022-09-21T04:02:40.768Z,2.50
2022-09-21T04:04:42.770Z,2.97
2022-09-21T04:06:46.302Z,2.47
2022-09-21T04:08:51.185Z,2.75
2022-09-21T04:10:52.947Z,2.75
2022-09-21T04:12:58.020Z,3.05
2022-09-21T04:14:59.775Z,3.00
2022-09-21T04:17:01.513Z,2.83
2022-09-21T04:19:03.173Z,2.55
2022-09-21T04:21:06.315Z,2.75
2022-09-21T04:23:08.664Z,1.92
2022-09-21T04:25:13.960Z,1.80
2022-09-21T04:27:15.569Z,2.15
2022-09-21T04:29:17.362Z,1.83
2022-09-21T04:31:19.324Z,2.38
2022-09-21T04:33:23.969Z,2.47
2022-09-21T04:35:25.744Z,2.70
2022-09-21T04:37:27.616Z,2.80
2022-09-21T04:39:29.441Z,2.67
2022-09-21T04:41:31.740Z,2.83
2022-09-21T04:43:33.483Z,2.63
2022-09-21T04:45:35.497Z,3.28
2022-09-21T04:47:37.146Z,2.13
2022-09-21T04:49:38.925Z,2.72
2022-09-21T04:51:40.582Z,2.30
2022-09-21T04:53:43.177Z,2.80
2022-09-21T04:55:46.343Z,2.58
2022-09-21T04:57:50.526Z,3.53
2022-09-21T04:59:52.425Z,3.10
2022-09-21T05:01:54.302Z,2.92
2022-09-21T05:03:58.749Z,3.38
2022-09-21T05:06:00.766Z,2.70
2022-09-21T05:08:02.489Z,3.35
2022-09-21T05:10:09.280Z,3.05
2022-09-21T05:12:11.031Z,3.08
2022-09-21T05:14:12.926Z,3.40
2022-09-21T05:16:15.958Z,3.22
2022-09-21T05:18:17.576Z,3.78
2022-09-21T05:20:19.277Z,6.35
2022-09-21T05:22:21.322Z,5.15
2022-09-21T05:24:23.062Z,3.50
2022-09-21T05:26:24.824Z,2.63
2022-09-21T05:28:27.198Z,2.78
2022-09-21T05:30:29.200Z,2.95
2022-09-21T05:32:48.198Z,2.85
2022-09-21T05:35:17.100Z,3.22
2022-09-21T05:37:38.185Z,2.85
2022-09-21T05:39:40.900Z,3.42
2022-09-21T05:41:43.048Z,2.78
2022-09-21T05:43:45.546Z,3.70
2022-09-21T05:45:51.591Z,3.17
2022-09-21T05:48:12.178Z,2.85
2022-09-21T05:50:44.508Z,3.17
2022-09-21T05:53:23.513Z,3.17
2022-09-21T05:55:37.410Z,2.75
2022-09-21T05:57:57.900Z,2.97
2022-09-21T06:00:02.491Z,2.80
2022-09-21T06:02:15.823Z,2.75
2022-09-21T06:04:17.969Z,2.78
2022-09-21T06:06:20.520Z,3.38
2022-09-21T06:08:22.331Z,3.65
2022-09-21T06:10:25.268Z,2.25
2022-09-21T06:12:26.963Z,4.43
2022-09-21T06:14:28.780Z,3.08
2022-09-21T06:16:38.595Z,2.78
2022-09-21T06:18:41.267Z,3.60
2022-09-21T06:20:43.148Z,3.60
2022-09-21T06:22:44.989Z,4.57
2022-09-21T06:24:46.714Z,3.55
2022-09-21T06:26:48.471Z,5.57
2022-09-21T06:28:50.288Z,4.78
2022-09-21T06:30:53.215Z,5.20
2022-09-21T06:32:54.962Z,5.05
2022-09-21T06:34:57.250Z,4.43
2022-09-21T06:36:59.075Z,4.78
2022-09-21T06:39:00.902Z,4.13
2022-09-21T06:41:04.362Z,4.90
2022-09-21T06:43:06.616Z,3.75
2022-09-21T06:45:08.871Z,3.92
2022-09-21T06:47:10.619Z,4.68
2022-09-21T06:49:12.369Z,3.85
2022-09-21T06:51:14.178Z,3.65
2022-09-21T06:53:18.113Z,3.35
2022-09-21T06:55:20.279Z,3.42
2022-09-21T06:57:22.002Z,3.13
2022-09-21T06:59:23.829Z,3.40
2022-09-21T07:01:25.687Z,2.72
2022-09-21T07:03:28.343Z,3.15
2022-09-21T07:05:30.141Z,2.50
2022-09-21T07:07:32.163Z,2.70
2022-09-21T07:11:55.996Z,2.70
2022-09-21T07:13:58.757Z,3.50
2022-09-21T07:16:05.384Z,3.05
2022-09-21T07:18:14.263Z,2.65
2022-09-21T07:20:16.231Z,2.67
2022-09-21T07:22:18.011Z,3.53
2022-09-21T07:24:19.733Z,3.50
2022-09-21T07:26:22.779Z,2.58
2022-09-21T07:28:24.520Z,2.55
2022-09-21T07:30:27.942Z,2.88
2022-09-21T07:32:31.030Z,2.63
2022-09-21T07:34:39.735Z,2.58
2022-09-21T07:36:42.296Z,1.90
2022-09-21T07:38:45.018Z,2.25
2022-09-21T07:40:47.268Z,2.28
2022-09-21T07:42:49.237Z,2.45
2022-09-21T07:44:51.228Z,1.77
2022-09-21T07:46:53.539Z,2.30
2022-09-21T07:48:56.753Z,2.47
2022-09-21T07:51:06.512Z,2.80
2022-09-21T07:53:10.612Z,2.35
2022-09-21T07:55:12.923Z,2.15
2022-09-21T07:57:33.950Z,2.00
2022-09-21T07:59:35.889Z,1.85
2022-09-21T08:01:40.404Z,1.90
2022-09-21T08:03:43.006Z,1.75
2022-09-21T08:05:47.039Z,1.80
2022-09-21T08:07:48.822Z,2.22
2022-09-21T08:09:53.715Z,1.70
2022-09-21T08:11:56.230Z,2.17
2022-09-21T08:14:00.860Z,2.13
2022-09-21T08:16:03.967Z,2.58
2022-09-21T08:18:07.613Z,2.20
2022-09-21T08:20:12.128Z,2.60
2022-09-21T08:22:14.377Z,1.77
2022-09-21T08:24:15.999Z,1.25
2022-09-21T08:26:19.933Z,2.10
2022-09-21T08:28:21.751Z,1.90
2022-09-21T08:30:23.782Z,1.95
2022-09-21T08:32:46.898Z,1.92
2022-09-21T08:34:47.546Z,1.88
2022-09-21T08:36:54.425Z,1.90
2022-09-21T08:38:57.608Z,1.95
2022-09-21T08:41:01.677Z,1.98
2022-09-21T08:43:10.246Z,1.73
2022-09-21T08:45:17.986Z,1.83
2022-09-21T08:47:24.820Z,1.70
2022-09-21T08:49:29.128Z,1.95
2022-09-21T08:51:36.886Z,1.42
2022-09-21T08:53:46.946Z,1.67
2022-09-21T08:55:48.885Z,1.45
2022-09-21T08:57:50.576Z,1.30
2022-09-21T08:59:52.454Z,1.65
2022-09-21T09:02:15.508Z,1.55
2022-09-21T09:04:40.158Z,1.55
2022-09-21T09:07:06.102Z,1.60
2022-09-21T09:09:31.212Z,1.65
2022-09-21T09:11:42.179Z,1.40
2022-09-21T09:13:52.872Z,1.10
2022-09-21T09:16:11.356Z,1.17
2022-09-21T09:18:19.342Z,1.13
2022-09-21T09:20:34.611Z,0.60
2022-09-21T09:23:13.492Z,0.77
2022-09-21T09:25:22.423Z,0.80
2022-09-21T09:27:42.264Z,0.80
2022-09-21T09:29:57.378Z,0.70
2022-09-21T09:32:03.431Z,0.50
2022-09-21T09:34:17.265Z,0.80
2022-09-21T09:36:34.771Z,0.80
2022-09-21T09:38:45.856Z,0.80
2022-09-21T09:40:58.152Z,0.88
2022-09-21T09:43:15.476Z,0.90
2022-09-21T09:45:26.372Z,0.88
2022-09-21T09:47:59.222Z,0.73
2022-09-21T09:50:05.868Z,0.68
2022-09-21T09:52:11.687Z,0.85
2022-09-21T09:54:15.772Z,0.82
2022-09-21T09:56:19.106Z,0.52
2022-09-21T09:58:21.632Z,0.80
2022-09-21T10:00:23.597Z,0.55
2022-09-21T10:02:27.690Z,0.70
2022-09-21T10:04:30.506Z,0.60
2022-09-21T10:06:33.356Z,0.47
2022-09-21T10:08:39.427Z,0.68
2022-09-21T10:10:41.857Z,0.75
2022-09-21T10:12:46.788Z,0.50
2022-09-21T10:14:50.732Z,0.73
2022-09-21T10:16:53.736Z,0.80
2022-09-21T10:19:01.715Z,0.98
2022-09-21T10:21:07.446Z,0.90
2022-09-21T10:23:11.634Z,0.70
2022-09-21T10:25:16.503Z,0.88
2022-09-21T10:27:22.847Z,0.70
2022-09-21T10:29:25.669Z,0.68
2022-09-21T10:31:30.096Z,0.73
2022-09-21T10:33:31.825Z,0.93
2022-09-21T10:35:49.712Z,0.70
2022-09-21T10:38:21.973Z,0.90
2022-09-21T10:40:26.145Z,1.05
2022-09-21T10:42:32.199Z,1.20
2022-09-21T10:44:40.639Z,1.02
2022-09-21T10:46:42.337Z,1.10
2022-09-21T10:48:47.178Z,1.00
2022-09-21T10:50:50.129Z,0.80
2022-09-21T10:52:56.897Z,1.00
2022-09-21T10:54:58.679Z,1.10
2022-09-21T10:57:08.302Z,1.08
2022-09-21T10:59:33.030Z,1.23
2022-09-21T11:01:34.711Z,0.90
2022-09-21T11:03:39.495Z,0.90
2022-09-21T11:05:51.675Z,1.42
2022-09-21T11:08:14.460Z,1.00
2022-09-21T11:10:36.141Z,1.05
2022-09-21T11:12:53.418Z,1.30
2022-09-21T11:15:04.393Z,0.57
2022-09-21T11:17:26.522Z,0.82
2022-09-21T11:19:37.825Z,0.63
2022-09-21T11:21:53.049Z,0.80
2022-09-21T11:24:06.346Z,0.60
2022-09-21T11:26:25.949Z,0.95
2022-09-21T11:28:40.953Z,0.75
2022-09-21T11:31:08.381Z,0.80
2022-09-21T11:33:19.336Z,1.08
2022-09-21T11:35:31.447Z,0.98
2022-09-21T11:38:08.523Z,0.80
2022-09-21T11:40:34.528Z,0.95
2022-09-21T11:43:30.608Z,0.90
2022-09-21T11:45:32.777Z,0.73
2022-09-21T11:47:37.673Z,0.63
2022-09-21T11:49:45.512Z,0.60
2022-09-21T11:52:31.501Z,0.85
2022-09-21T11:54:43.517Z,0.95
2022-09-21T11:56:51.829Z,0.80
2022-09-21T11:59:14.112Z,0.80
2022-09-21T12:01:19.196Z,0.70
2022-09-21T12:03:50.806Z,0.60
2022-09-21T12:06:34.002Z,0.60
2022-09-21T12:08:59.117Z,0.60
2022-09-21T12:11:14.073Z,0.50
2022-09-21T12:13:32.238Z,0.75
2022-09-21T12:16:07.027Z,0.70
2022-09-21T12:18:27.853Z,0.77
2022-09-21T12:20:29.587Z,0.80
2022-09-21T12:22:34.998Z,0.47
2022-09-21T12:24:42.807Z,0.45
2022-09-21T12:26:50.376Z,0.68
2022-09-21T12:32:36.075Z,0.50
2022-09-21T12:34:42.963Z,0.52
2022-09-21T12:37:05.184Z,0.50
2022-09-21T12:39:23.659Z,0.68
2022-09-21T12:41:53.816Z,0.52
2022-09-21T12:44:14.601Z,0.40
2022-09-21T12:46:21.742Z,0.55
2022-09-21T12:48:29.585Z,0.55
2022-09-21T12:50:36.203Z,0.60
2022-09-21T12:52:37.905Z,0.50
2022-09-21T12:54:46.861Z,0.60
2022-09-21T12:56:54.007Z,0.50
2022-09-21T12:59:20.860Z,0.50
2022-09-21T13:01:28.064Z,0.68
2022-09-21T13:03:39.133Z,0.55
2022-09-21T13:06:00.631Z,0.60
2022-09-21T13:08:10.216Z,0.57
2022-09-21T13:10:19.098Z,0.40
2022-09-21T13:12:24.889Z,0.60
2022-09-21T13:14:29.675Z,0.50
2022-09-21T13:16:38.545Z,0.50
2022-09-21T13:18:40.891Z,0.45
2022-09-21T13:20:45.812Z,0.40
2022-09-21T13:22:50.922Z,0.60
2022-09-21T13:25:29.803Z,0.47
2022-09-21T13:28:09.949Z,0.50
2022-09-21T13:30:42.341Z,0.43
2022-09-21T13:32:51.685Z,0.40
2022-09-21T13:34:54.133Z,0.60
2022-09-21T13:37:17.871Z,0.60
2022-09-21T13:39:19.743Z,0.43
2022-09-21T13:41:45.490Z,0.45
2022-09-21T13:44:18.008Z,0.40
2022-09-21T13:46:37.660Z,0.70
2022-09-21T13:48:40.158Z,0.68
2022-09-21T13:50:44.245Z,0.50
2022-09-21T13:52:49.487Z,0.50
2022-09-21T13:55:00.353Z,0.60
2022-09-21T13:57:16.614Z,0.50
2022-09-21T13:59:24.521Z,0.60
2022-09-21T14:01:46.723Z,0.75
2022-09-21T14:03:58.930Z,0.32
2022-09-21T14:06:08.802Z,0.40
2022-09-21T14:08:16.311Z,0.60
2022-09-21T14:10:19.623Z,0.98
2022-09-21T14:12:25.158Z,0.60
2022-09-21T14:14:38.411Z,0.50
2022-09-21T14:16:41.950Z,0.60
2022-09-21T14:18:46.573Z,0.50
2022-09-21T14:21:07.293Z,0.70
2022-09-21T14:23:15.121Z,0.55
2022-09-21T14:25:28.648Z,0.60
2022-09-21T14:27:41.197Z,0.85
2022-09-21T14:29:56.340Z,0.60
2022-09-21T14:32:00.839Z,0.63
2022-09-21T14:34:04.255Z,0.47
2022-09-21T14:36:08.873Z,0.63
2022-09-21T14:38:30.604Z,0.68
2022-09-21T14:40:39.247Z,0.47
2022-09-21T14:42:41.302Z,0.60
2022-09-21T14:44:43.548Z,0.60
2022-09-21T14:47:03.722Z,0.75
2022-09-21T14:49:30.155Z,0.60
2022-09-21T14:51:41.963Z,0.80
2022-09-21T14:54:12.236Z,0.75
2022-09-21T14:56:41.982Z,0.77
2022-09-21T14:59:04.230Z,0.60
2022-09-21T15:01:20.630Z,0.40
2022-09-21T15:03:53.959Z,0.38
2022-09-21T15:06:34.462Z,0.60
2022-09-21T15:09:37.418Z,0.82
2022-09-21T15:11:44.085Z,0.90
2022-09-21T15:13:53.947Z,0.50
2022-09-21T15:15:58.355Z,0.65
2022-09-21T15:18:01.932Z,0.60
2022-09-21T15:20:17.128Z,0.50
2022-09-21T15:22:22.584Z,0.50
2022-09-21T15:24:34.095Z,0.60
2022-09-21T15:26:37.809Z,0.63
2022-09-21T15:29:08.360Z,0.70
2022-09-21T15:31:10.056Z,0.65
2022-09-21T15:33:12.990Z,0.60
2022-09-21T15:35:20.968Z,0.57
2022-09-21T15:37:23.178Z,0.60
2022-09-21T15:39:30.019Z,0.60
2022-09-21T15:41:44.983Z,0.68
2022-09-21T15:43:57.991Z,0.50
2022-09-21T15:46:04.628Z,0.50
2022-09-21T15:48:11.003Z,0.77
2022-09-21T15:50:17.498Z,0.70
2022-09-21T15:52:28.196Z,0.50
2022-09-21T15:54:32.879Z,1.05
2022-09-21T15:56:41.282Z,0.88
2022-09-21T15:58:49.836Z,0.80
2022-09-21T16:00:55.935Z,0.60
2022-09-21T16:03:22.791Z,0.50
2022-09-21T16:05:25.678Z,0.80
2022-09-21T16:07:32.759Z,0.77
2022-09-21T16:09:45.186Z,1.00
2022-09-21T16:11:46.845Z,0.80
2022-09-21T16:14:08.181Z,0.50
2022-09-21T16:16:14.420Z,0.77
2022-09-21T16:18:46.532Z,1.05
2022-09-21T16:20:48.452Z,0.65
2022-09-21T16:22:54.759Z,0.65
2022-09-21T16:25:00.868Z,0.60
2022-09-21T16:27:03.354Z,0.77
2022-09-21T16:29:39.379Z,0.70
2022-09-21T16:31:42.524Z,0.85
2022-09-21T16:33:47.344Z,0.60
2022-09-21T16:35:48.940Z,0.70
2022-09-21T16:37:50.762Z,0.90
2022-09-21T16:39:56.302Z,1.10
2022-09-21T16:42:01.838Z,0.95
2022-09-21T16:44:03.755Z,1.10
2022-09-21T16:46:08.257Z,1.48
2022-09-21T16:48:12.755Z,0.90
2022-09-21T16:50:19.041Z,1.20
2022-09-21T16:52:21.624Z,2.08
2022-09-21T16:54:25.293Z,2.25
2022-09-21T16:56:27.133Z,1.45
2022-09-21T16:58:28.760Z,1.20
2022-09-21T17:00:32.014Z,1.00
2022-09-21T17:02:33.799Z,1.55
2022-09-21T17:04:35.573Z,1.20
2022-09-21T17:06:40.040Z,0.80
2022-09-21T17:08:42.063Z,1.00
2022-09-21T17:10:45.518Z,1.95
2022-09-21T17:12:47.794Z,1.65
2022-09-21T17:14:51.659Z,1.60
2022-09-21T17:16:56.420Z,1.60
2022-09-21T17:18:58.040Z,1.17
2022-09-21T17:20:59.663Z,0.93
2022-09-21T17:23:03.177Z,1.50
2022-09-21T17:25:05.299Z,0.75
2022-09-21T17:27:08.118Z,0.70
2022-09-21T17:29:23.589Z,0.82
2022-09-21T17:31:25.449Z,1.13
2022-09-21T17:33:27.133Z,0.90
2022-09-21T17:35:39.115Z,0.90
2022-09-21T17:37:40.708Z,1.15
2022-09-21T17:39:44.989Z,1.00
2022-09-21T17:41:53.277Z,0.98
2022-09-21T17:44:16.663Z,0.85
2022-09-21T17:46:35.800Z,0.93
2022-09-21T17:48:39.583Z,0.98
2022-09-21T17:50:41.392Z,0.80
2022-09-21T17:53:02.326Z,0.80
2022-09-21T17:55:08.784Z,0.80
2022-09-21T17:57:48.947Z,0.82
2022-09-21T17:59:59.159Z,1.20
2022-09-21T18:02:19.468Z,1.30
2022-09-21T18:04:22.058Z,1.45
2022-09-21T18:06:24.228Z,1.45
2022-09-21T18:08:29.411Z,1.17
2022-09-21T18:10:31.227Z,1.52
2022-09-21T18:13:06.959Z,2.17
2022-09-21T18:15:23.196Z,1.70
2022-09-21T18:17:52.863Z,1.40
2022-09-21T18:20:13.375Z,1.38
2022-09-21T18:22:31.621Z,2.22
2022-09-21T18:24:33.468Z,2.88
2022-09-21T18:26:35.315Z,1.70
2022-09-21T18:28:40.675Z,1.38
2022-09-21T18:30:49.295Z,1.30
2022-09-21T18:33:03.314Z,1.70
2022-09-21T18:35:20.037Z,1.63
2022-09-21T18:37:48.615Z,1.48
2022-09-21T18:40:23.114Z,1.50
2022-09-21T18:42:29.754Z,1.95
2022-09-21T18:44:36.951Z,1.30
2022-09-21T18:47:09.812Z,2.05
2022-09-21T18:49:46.850Z,2.08
2022-09-21T18:52:32.364Z,2.22
2022-09-21T18:54:34.064Z,2.65
2022-09-21T18:56:37.227Z,2.40
2022-09-21T18:58:39.681Z,2.50
2022-09-21T19:00:41.945Z,2.03
2022-09-21T19:03:05.088Z,1.75
2022-09-21T19:05:06.022Z,2.22
2022-09-21T19:07:18.080Z,2.63
2022-09-21T19:09:32.195Z,2.08
2022-09-21T19:12:08.277Z,2.33
2022-09-21T19:14:36.154Z,3.50
2022-09-21T19:16:50.388Z,4.63
2022-09-21T19:18:55.661Z,3.67
2022-09-21T19:21:17.531Z,2.70
2022-09-21T19:23:34.938Z,2.65
2022-09-21T19:25:48.821Z,2.97
2022-09-21T19:28:05.517Z,2.45
2022-09-21T19:30:08.986Z,2.28
2022-09-21T19:32:29.949Z,2.15
2022-09-21T19:34:31.973Z,2.63
2022-09-21T19:36:34.173Z,3.42
2022-09-21T19:38:36.016Z,2.92
2022-09-21T19:40:41.617Z,3.03
2022-09-21T19:43:08.183Z,3.42
2022-09-21T19:45:10.040Z,3.55
2022-09-21T19:47:29.391Z,3.40
2022-09-21T19:49:55.112Z,3.13
2022-09-21T19:51:57.174Z,2.80
2022-09-21T19:54:17.590Z,2.53
2022-09-21T19:56:38.856Z,2.75
2022-09-21T19:58:59.762Z,2.30
2022-09-21T20:01:02.002Z,2.92
2022-09-21T20:03:15.279Z,3.28
2022-09-21T20:05:23.344Z,2.45
2022-09-21T20:07:30.419Z,3.90
2022-09-21T20:09:42.757Z,3.13
2022-09-21T20:11:50.889Z,3.60
2022-09-21T20:14:09.889Z,3.85
2022-09-21T20:16:49.418Z,3.00
2022-09-21T20:18:59.731Z,2.95
2022-09-21T20:21:01.576Z,3.88
2022-09-21T20:23:03.685Z,3.05
2022-09-21T20:25:25.443Z,3.10
2022-09-21T20:27:28.802Z,2.90
2022-09-21T20:29:30.632Z,6.13
2022-09-21T20:31:32.335Z,6.18
2022-09-21T20:33:33.981Z,8.13
2022-09-21T20:35:35.675Z,6.13
2022-09-21T20:37:37.876Z,5.78
2022-09-21T20:39:40.070Z,4.90
2022-09-21T20:41:41.687Z,3.75
2022-09-21T20:43:43.481Z,4.50
2022-09-21T20:45:49.335Z,4.03
2022-09-21T20:47:52.048Z,4.07
2022-09-21T20:49:53.727Z,4.13
2022-09-21T20:51:55.325Z,3.70
2022-09-21T20:53:57.431Z,3.05
2022-09-21T20:56:01.567Z,2.90
2022-09-21T20:58:03.542Z,3.30
2022-09-21T21:00:07.477Z,3.45
2022-09-21T21:02:13.393Z,2.53
2022-09-21T21:04:14.990Z,2.83
2022-09-21T21:06:18.919Z,2.50
2022-09-21T21:08:20.565Z,2.60
2022-09-21T21:10:22.385Z,2.10
2022-09-21T21:12:24.071Z,2.53
2022-09-21T21:14:29.974Z,2.50
2022-09-21T21:16:31.826Z,2.95
2022-09-21T21:18:33.429Z,3.03
2022-09-21T21:20:35.018Z,2.40
2022-09-21T21:22:37.064Z,2.70
2022-09-21T21:24:42.174Z,2.50
2022-09-21T21:27:01.221Z,2.35
2022-09-21T21:29:04.781Z,2.33
2022-09-21T21:31:07.230Z,2.45
2022-09-21T21:33:09.018Z,2.13
2022-09-21T21:35:10.750Z,2.05
2022-09-21T21:37:13.591Z,1.70
2022-09-21T21:39:15.160Z,1.80
2022-09-21T21:41:16.911Z,2.13
2022-09-21T21:43:18.870Z,1.85
2022-09-21T21:45:21.617Z,1.70
2022-09-21T21:47:40.908Z,2.05
2022-09-21T21:49:42.996Z,2.25
2022-09-21T21:51:44.779Z,1.33
2022-09-21T21:53:46.396Z,1.75
2022-09-21T21:55:47.985Z,1.50
2022-09-21T21:57:49.575Z,1.55
2022-09-21T21:59:51.231Z,1.35
2022-09-21T22:01:53.206Z,2.25
2022-09-21T22:04:00.552Z,1.60
2022-09-21T22:06:03.677Z,2.05
2022-09-21T22:08:05.332Z,1.67
2022-09-21T22:10:09.144Z,1.77
2022-09-21T22:12:11.243Z,1.60
2022-09-21T22:14:12.898Z,1.80
2022-09-21T22:16:17.339Z,1.73
2022-09-21T22:18:19.389Z,1.58
2022-09-21T22:20:22.998Z,1.40
2022-09-21T22:22:24.879Z,2.15
2022-09-21T22:24:29.840Z,1.88
2022-09-21T22:26:36.350Z,2.03
2022-09-21T22:28:45.308Z,1.83
2022-09-21T22:30:49.126Z,2.10
2022-09-21T22:32:51.715Z,2.20
2022-09-21T22:34:53.456Z,2.03
2022-09-21T22:36:56.410Z,1.80
2022-09-21T22:38:58.685Z,1.88
2022-09-21T22:41:07.772Z,2.10
2022-09-21T22:43:09.466Z,1.83
2022-09-21T22:45:11.212Z,1.88
2022-09-21T22:47:12.861Z,1.77
2022-09-21T22:49:14.436Z,1.85
2022-09-21T22:51:17.568Z,2.25
2022-09-21T22:53:19.266Z,2.40
2022-09-21T22:55:20.899Z,1.77
2022-09-21T22:57:22.672Z,1.70
2022-09-21T22:59:24.404Z,2.33
2022-09-21T23:01:36.482Z,2.42
2022-09-21T23:03:39.422Z,2.55
2022-09-21T23:05:41.129Z,2.03
2022-09-21T23:07:42.704Z,1.70
2022-09-21T23:09:44.405Z,2.22
2022-09-21T23:11:49.289Z,2.35
2022-09-21T23:13:51.025Z,1.98
2022-09-21T23:15:52.886Z,1.77
2022-09-21T23:17:54.555Z,1.65
2022-09-21T23:19:56.202Z,1.63
2022-09-21T23:21:57.824Z,1.70
2022-09-21T23:24:03.143Z,1.98
2022-09-21T23:26:09.338Z,1.67
2022-09-21T23:28:10.951Z,1.73
2022-09-21T23:30:12.678Z,1.95
2022-09-21T23:32:14.313Z,1.73
2022-09-21T23:34:16.176Z,2.20
2022-09-21T23:36:23.826Z,2.53
2022-09-21T23:38:26.595Z,2.05
2022-09-21T23:40:31.387Z,1.75
2022-09-21T23:42:33.041Z,1.52
2022-09-21T23:44:35.188Z,1.67
2022-09-21T23:46:38.414Z,2.08
2022-09-21T23:48:40.311Z,1.88
2022-09-21T23:50:43.467Z,1.95
2022-09-21T23:52:45.079Z,2.00
2022-09-21T23:54:46.994Z,1.70
2022-09-21T23:56:48.590Z,1.88
2022-09-21T23:58:50.469Z,1.92
